sensor_id;sensor_type;location;lat;lon;timestamp;P1;durP1;ratioP1;P2;durP2;ratioP2
7683;SDS011;3884;48.616;12.872;2023-11-22T00:01:22;6.33;;;5.30;;
7683;SDS011;3884;48.616;12.872;2023-11-22T00:03:51;5.90;;;5.30;;
7683;SDS011;3884;48.616;12.872;2023-11-22T00:06:18;5.67;;;4.93;;
7683;SDS011;3884;48.616;12.872;2023-11-22T00:08:45;5.40;;;4.90;;
7683;SDS011;3884;48.616;12.872;2023-11-22T00:11:13;5.47;;;4.97;;
7683;SDS011;3884;48.616;12.872;2023-11-22T00:13:40;4.87;;;4.37;;
7683;SDS011;3884;48.616;12.872;2023-11-22T00:16:07;4.40;;;3.93;;
7683;SDS011;3884;48.616;12.872;2023-11-22T00:18:35;4.03;;;3.73;;
7683;SDS011;3884;48.616;12.872;2023-11-22T00:21:05;4.27;;;3.67;;
7683;SDS011;3884;48.616;12.872;2023-11-22T00:23:32;3.80;;;3.50;;
7683;SDS011;3884;48.616;12.872;2023-11-22T00:25:59;3.70;;;3.40;;
7683;SDS011;3884;48.616;12.872;2023-11-22T00:28:26;3.60;;;3.30;;
7683;SDS011;3884;48.616;12.872;2023-11-22T00:30:53;3.40;;;3.10;;
7683;SDS011;3884;48.616;12.872;2023-11-22T00:33:20;3.83;;;3.13;;
7683;SDS011;3884;48.616;12.872;2023-11-22T00:35:47;3.50;;;3.20;;
7683;SDS011;3884;48.616;12.872;2023-11-22T00:38:15;3.80;;;3.50;;
7683;SDS011;3884;48.616;12.872;2023-11-22T00:40:42;3.67;;;3.37;;
7683;SDS011;3884;48.616;12.872;2023-11-22T00:43:09;3.97;;;3.67;;
7683;SDS011;3884;48.616;12.872;2023-11-22T00:45:36;4.07;;;3.67;;
7683;SDS011;3884;48.616;12.872;2023-11-22T00:48:03;3.80;;;3.50;;
7683;SDS011;3884;48.616;12.872;2023-11-22T00:50:30;4.37;;;3.97;;
7683;SDS011;3884;48.616;12.872;2023-11-22T00:52:57;4.53;;;4.13;;
7683;SDS011;3884;48.616;12.872;2023-11-22T00:55:25;4.33;;;4.00;;
7683;SDS011;3884;48.616;12.872;2023-11-22T00:57:53;4.77;;;4.27;;
7683;SDS011;3884;48.616;12.872;2023-11-22T01:00:21;4.60;;;4.20;;
7683;SDS011;3884;48.616;12.872;2023-11-22T01:02:48;4.63;;;4.23;;
7683;SDS011;3884;48.616;12.872;2023-11-22T01:05:16;4.63;;;4.13;;
7683;SDS011;3884;48.616;12.872;2023-11-22T01:07:43;4.60;;;4.20;;
7683;SDS011;3884;48.616;12.872;2023-11-22T01:10:10;5.03;;;4.63;;
7683;SDS011;3884;48.616;12.872;2023-11-22T01:12:38;5.13;;;4.60;;
7683;SDS011;3884;48.616;12.872;2023-11-22T01:15:06;5.37;;;4.87;;
7683;SDS011;3884;48.616;12.872;2023-11-22T01:17:33;5.30;;;4.80;;
7683;SDS011;3884;48.616;12.872;2023-11-22T01:20:01;5.90;;;5.40;;
7683;SDS011;3884;48.616;12.872;2023-11-22T01:22:28;5.67;;;5.17;;
7683;SDS011;3884;48.616;12.872;2023-11-22T01:24:58;5.57;;;5.07;;
7683;SDS011;3884;48.616;12.872;2023-11-22T01:27:26;5.60;;;5.10;;
7683;SDS011;3884;48.616;12.872;2023-11-22T01:29:55;6.07;;;5.50;;
7683;SDS011;3884;48.616;12.872;2023-11-22T01:32:23;6.10;;;5.50;;
7683;SDS011;3884;48.616;12.872;2023-11-22T01:34:49;7.60;;;5.60;;
7683;SDS011;3884;48.616;12.872;2023-11-22T01:37:16;6.40;;;5.80;;
7683;SDS011;3884;48.616;12.872;2023-11-22T01:39:43;5.87;;;5.27;;
7683;SDS011;3884;48.616;12.872;2023-11-22T01:42:11;6.50;;;5.67;;
7683;SDS011;3884;48.616;12.872;2023-11-22T01:44:38;6.63;;;6.00;;
7683;SDS011;3884;48.616;12.872;2023-11-22T01:47:08;6.23;;;5.20;;
7683;SDS011;3884;48.616;12.872;2023-11-22T01:49:36;6.40;;;5.63;;
7683;SDS011;3884;48.616;12.872;2023-11-22T01:52:03;4.90;;;4.50;;
7683;SDS011;3884;48.616;12.872;2023-11-22T01:54:31;5.67;;;5.17;;
7683;SDS011;3884;48.616;12.872;2023-11-22T01:56:58;5.60;;;5.10;;
7683;SDS011;3884;48.616;12.872;2023-11-22T01:59:25;5.23;;;4.70;;
7683;SDS011;3884;48.616;12.872;2023-11-22T02:01:55;5.90;;;5.13;;
7683;SDS011;3884;48.616;12.872;2023-11-22T02:04:23;6.40;;;5.60;;
7683;SDS011;3884;48.616;12.872;2023-11-22T02:06:50;5.50;;;4.80;;
7683;SDS011;3884;48.616;12.872;2023-11-22T02:09:18;5.00;;;4.50;;
7683;SDS011;3884;48.616;12.872;2023-11-22T02:11:46;5.23;;;4.40;;
7683;SDS011;3884;48.616;12.872;2023-11-22T02:14:14;4.97;;;4.57;;
7683;SDS011;3884;48.616;12.872;2023-11-22T02:16:41;4.93;;;4.47;;
7683;SDS011;3884;48.616;12.872;2023-11-22T02:19:11;5.60;;;5.10;;
7683;SDS011;3884;48.616;12.872;2023-11-22T02:21:42;5.33;;;4.83;;
7683;SDS011;3884;48.616;12.872;2023-11-22T02:24:11;5.50;;;5.00;;
7683;SDS011;3884;48.616;12.872;2023-11-22T02:26:37;5.33;;;4.83;;
7683;SDS011;3884;48.616;12.872;2023-11-22T02:29:09;6.13;;;4.77;;
7683;SDS011;3884;48.616;12.872;2023-11-22T02:31:36;5.17;;;4.67;;
7683;SDS011;3884;48.616;12.872;2023-11-22T02:34:03;4.90;;;4.50;;
7683;SDS011;3884;48.616;12.872;2023-11-22T02:36:30;5.83;;;4.87;;
7683;SDS011;3884;48.616;12.872;2023-11-22T02:38:57;5.10;;;4.60;;
7683;SDS011;3884;48.616;12.872;2023-11-22T02:41:27;4.60;;;4.20;;
7683;SDS011;3884;48.616;12.872;2023-11-22T02:43:55;5.27;;;4.70;;
7683;SDS011;3884;48.616;12.872;2023-11-22T02:46:22;5.13;;;4.40;;
7683;SDS011;3884;48.616;12.872;2023-11-22T02:48:49;4.87;;;4.30;;
7683;SDS011;3884;48.616;12.872;2023-11-22T02:51:16;4.97;;;4.43;;
7683;SDS011;3884;48.616;12.872;2023-11-22T02:53:44;4.67;;;4.10;;
7683;SDS011;3884;48.616;12.872;2023-11-22T02:56:12;4.70;;;4.30;;
7683;SDS011;3884;48.616;12.872;2023-11-22T02:58:41;5.13;;;4.20;;
7683;SDS011;3884;48.616;12.872;2023-11-22T03:01:08;5.77;;;4.73;;
7683;SDS011;3884;48.616;12.872;2023-11-22T03:03:35;5.10;;;4.27;;
7683;SDS011;3884;48.616;12.872;2023-11-22T03:06:03;4.60;;;4.20;;
7683;SDS011;3884;48.616;12.872;2023-11-22T03:08:30;5.07;;;4.23;;
7683;SDS011;3884;48.616;12.872;2023-11-22T03:13:46;4.37;;;3.97;;
7683;SDS011;3884;48.616;12.872;2023-11-22T03:16:14;4.50;;;4.10;;
7683;SDS011;3884;48.616;12.872;2023-11-22T03:18:41;5.53;;;4.43;;
7683;SDS011;3884;48.616;12.872;2023-11-22T03:21:08;4.67;;;4.20;;
7683;SDS011;3884;48.616;12.872;2023-11-22T03:23:35;4.27;;;3.87;;
7683;SDS011;3884;48.616;12.872;2023-11-22T03:26:03;4.87;;;3.93;;
7683;SDS011;3884;48.616;12.872;2023-11-22T03:28:30;4.53;;;3.70;;
7683;SDS011;3884;48.616;12.872;2023-11-22T03:30:58;4.30;;;3.90;;
7683;SDS011;3884;48.616;12.872;2023-11-22T03:33:25;3.67;;;3.33;;
7683;SDS011;3884;48.616;12.872;2023-11-22T03:35:52;5.97;;;4.03;;
7683;SDS011;3884;48.616;12.872;2023-11-22T03:38:18;5.10;;;4.40;;
7683;SDS011;3884;48.616;12.872;2023-11-22T03:40:46;4.03;;;3.33;;
7683;SDS011;3884;48.616;12.872;2023-11-22T03:43:13;3.37;;;3.07;;
7683;SDS011;3884;48.616;12.872;2023-11-22T03:45:41;3.40;;;3.10;;
7683;SDS011;3884;48.616;12.872;2023-11-22T03:48:09;3.23;;;2.93;;
7683;SDS011;3884;48.616;12.872;2023-11-22T03:50:36;3.50;;;3.20;;
7683;SDS011;3884;48.616;12.872;2023-11-22T03:53:03;3.43;;;3.10;;
7683;SDS011;3884;48.616;12.872;2023-11-22T03:55:30;4.53;;;3.33;;
7683;SDS011;3884;48.616;12.872;2023-11-22T03:57:57;3.83;;;2.90;;
7683;SDS011;3884;48.616;12.872;2023-11-22T04:00:23;4.40;;;2.87;;
7683;SDS011;3884;48.616;12.872;2023-11-22T04:02:50;3.37;;;2.90;;
7683;SDS011;3884;48.616;12.872;2023-11-22T04:05:18;3.13;;;2.83;;
7683;SDS011;3884;48.616;12.872;2023-11-22T04:07:46;3.57;;;3.20;;
7683;SDS011;3884;48.616;12.872;2023-11-22T04:10:12;2.93;;;2.70;;
7683;SDS011;3884;48.616;12.872;2023-11-22T04:12:40;3.23;;;2.93;;
7683;SDS011;3884;48.616;12.872;2023-11-22T04:15:07;3.13;;;2.57;;
7683;SDS011;3884;48.616;12.872;2023-11-22T04:17:35;3.50;;;2.57;;
7683;SDS011;3884;48.616;12.872;2023-11-22T04:20:03;2.77;;;2.53;;
7683;SDS011;3884;48.616;12.872;2023-11-22T04:22:36;3.67;;;2.93;;
7683;SDS011;3884;48.616;12.872;2023-11-22T04:25:03;4.83;;;2.50;;
7683;SDS011;3884;48.616;12.872;2023-11-22T04:27:31;3.27;;;2.60;;
7683;SDS011;3884;48.616;12.872;2023-11-22T04:29:58;2.60;;;2.40;;
7683;SDS011;3884;48.616;12.872;2023-11-22T04:32:25;2.90;;;2.70;;
7683;SDS011;3884;48.616;12.872;2023-11-22T04:34:52;3.00;;;2.70;;
7683;SDS011;3884;48.616;12.872;2023-11-22T04:37:20;3.17;;;2.73;;
7683;SDS011;3884;48.616;12.872;2023-11-22T04:39:53;3.60;;;2.70;;
7683;SDS011;3884;48.616;12.872;2023-11-22T04:42:21;2.97;;;2.40;;
7683;SDS011;3884;48.616;12.872;2023-11-22T04:44:48;2.40;;;2.17;;
7683;SDS011;3884;48.616;12.872;2023-11-22T04:47:15;4.37;;;2.57;;
7683;SDS011;3884;48.616;12.872;2023-11-22T04:49:42;2.30;;;2.10;;
7683;SDS011;3884;48.616;12.872;2023-11-22T04:52:09;3.80;;;3.00;;
7683;SDS011;3884;48.616;12.872;2023-11-22T04:54:35;2.47;;;2.27;;
7683;SDS011;3884;48.616;12.872;2023-11-22T04:57:04;2.53;;;2.33;;
7683;SDS011;3884;48.616;12.872;2023-11-22T04:59:31;2.63;;;2.40;;
7683;SDS011;3884;48.616;12.872;2023-11-22T05:01:58;4.03;;;2.50;;
7683;SDS011;3884;48.616;12.872;2023-11-22T05:04:25;2.97;;;2.70;;
7683;SDS011;3884;48.616;12.872;2023-11-22T05:06:53;2.50;;;2.13;;
7683;SDS011;3884;48.616;12.872;2023-11-22T05:09:20;2.33;;;2.13;;
7683;SDS011;3884;48.616;12.872;2023-11-22T05:11:46;2.43;;;2.10;;
7683;SDS011;3884;48.616;12.872;2023-11-22T05:14:15;2.60;;;2.40;;
7683;SDS011;3884;48.616;12.872;2023-11-22T05:16:42;2.50;;;2.30;;
7683;SDS011;3884;48.616;12.872;2023-11-22T05:19:08;2.53;;;2.33;;
7683;SDS011;3884;48.616;12.872;2023-11-22T05:21:34;2.20;;;2.00;;
7683;SDS011;3884;48.616;12.872;2023-11-22T05:24:01;2.43;;;2.23;;
7683;SDS011;3884;48.616;12.872;2023-11-22T05:26:29;2.53;;;2.33;;
7683;SDS011;3884;48.616;12.872;2023-11-22T05:28:56;2.30;;;2.10;;
7683;SDS011;3884;48.616;12.872;2023-11-22T05:34:10;2.50;;;2.30;;
7683;SDS011;3884;48.616;12.872;2023-11-22T05:36:37;2.40;;;2.10;;
7683;SDS011;3884;48.616;12.872;2023-11-22T05:39:04;2.53;;;2.10;;
7683;SDS011;3884;48.616;12.872;2023-11-22T05:41:31;2.47;;;2.27;;
7683;SDS011;3884;48.616;12.872;2023-11-22T05:43:59;2.40;;;2.20;;
7683;SDS011;3884;48.616;12.872;2023-11-22T05:46:28;3.63;;;2.47;;
7683;SDS011;3884;48.616;12.872;2023-11-22T05:48:58;2.40;;;2.10;;
7683;SDS011;3884;48.616;12.872;2023-11-22T05:51:25;2.43;;;2.13;;
7683;SDS011;3884;48.616;12.872;2023-11-22T05:53:58;2.40;;;2.20;;
7683;SDS011;3884;48.616;12.872;2023-11-22T05:56:25;3.47;;;2.33;;
7683;SDS011;3884;48.616;12.872;2023-11-22T05:58:54;2.50;;;2.30;;
7683;SDS011;3884;48.616;12.872;2023-11-22T06:01:21;2.40;;;2.10;;
7683;SDS011;3884;48.616;12.872;2023-11-22T06:03:49;2.20;;;2.00;;
7683;SDS011;3884;48.616;12.872;2023-11-22T06:06:18;2.20;;;2.00;;
7683;SDS011;3884;48.616;12.872;2023-11-22T06:08:46;9.07;;;5.30;;
7683;SDS011;3884;48.616;12.872;2023-11-22T06:11:14;9.33;;;6.00;;
7683;SDS011;3884;48.616;12.872;2023-11-22T06:13:41;3.40;;;3.10;;
7683;SDS011;3884;48.616;12.872;2023-11-22T06:16:08;3.10;;;2.90;;
7683;SDS011;3884;48.616;12.872;2023-11-22T06:18:35;2.63;;;2.43;;
7683;SDS011;3884;48.616;12.872;2023-11-22T06:21:05;2.70;;;2.50;;
7683;SDS011;3884;48.616;12.872;2023-11-22T06:23:34;3.80;;;3.50;;
7683;SDS011;3884;48.616;12.872;2023-11-22T06:26:01;3.80;;;3.43;;
7683;SDS011;3884;48.616;12.872;2023-11-22T06:28:43;4.40;;;4.00;;
7683;SDS011;3884;48.616;12.872;2023-11-22T06:31:13;3.47;;;3.17;;
7683;SDS011;3884;48.616;12.872;2023-11-22T06:33:48;3.03;;;2.83;;
7683;SDS011;3884;48.616;12.872;2023-11-22T06:36:17;2.77;;;2.57;;
7683;SDS011;3884;48.616;12.872;2023-11-22T06:47:46;3.40;;;3.10;;
7683;SDS011;3884;48.616;12.872;2023-11-22T06:50:19;3.30;;;3.00;;
7683;SDS011;3884;48.616;12.872;2023-11-22T06:53:01;3.43;;;2.90;;
7683;SDS011;3884;48.616;12.872;2023-11-22T06:55:42;3.27;;;2.97;;
7683;SDS011;3884;48.616;12.872;2023-11-22T06:58:25;3.17;;;2.93;;
7683;SDS011;3884;48.616;12.872;2023-11-22T07:03:58;3.30;;;3.00;;
7683;SDS011;3884;48.616;12.872;2023-11-22T07:06:39;3.40;;;3.10;;
7683;SDS011;3884;48.616;12.872;2023-11-22T07:09:11;3.70;;;2.77;;
7683;SDS011;3884;48.616;12.872;2023-11-22T07:11:52;3.20;;;2.87;;
7683;SDS011;3884;48.616;12.872;2023-11-22T07:14:22;4.07;;;3.10;;
7683;SDS011;3884;48.616;12.872;2023-11-22T07:16:59;3.60;;;3.30;;
7683;SDS011;3884;48.616;12.872;2023-11-22T07:19:35;3.43;;;3.00;;
7683;SDS011;3884;48.616;12.872;2023-11-22T07:22:12;3.30;;;3.00;;
7683;SDS011;3884;48.616;12.872;2023-11-22T07:24:44;3.10;;;2.80;;
7683;SDS011;3884;48.616;12.872;2023-11-22T07:27:26;3.27;;;3.00;;
7683;SDS011;3884;48.616;12.872;2023-11-22T07:29:54;3.30;;;3.00;;
7683;SDS011;3884;48.616;12.872;2023-11-22T07:35:07;3.33;;;3.00;;
7683;SDS011;3884;48.616;12.872;2023-11-22T07:37:35;3.63;;;3.23;;
7683;SDS011;3884;48.616;12.872;2023-11-22T07:40:05;3.87;;;2.80;;
7683;SDS011;3884;48.616;12.872;2023-11-22T07:42:34;3.30;;;3.00;;
7683;SDS011;3884;48.616;12.872;2023-11-22T07:45:01;3.50;;;3.20;;
7683;SDS011;3884;48.616;12.872;2023-11-22T07:47:29;3.60;;;3.30;;
7683;SDS011;3884;48.616;12.872;2023-11-22T07:49:57;3.27;;;2.97;;
7683;SDS011;3884;48.616;12.872;2023-11-22T07:52:26;3.83;;;3.20;;
7683;SDS011;3884;48.616;12.872;2023-11-22T07:54:55;3.77;;;3.03;;
7683;SDS011;3884;48.616;12.872;2023-11-22T07:57:22;3.30;;;3.00;;
7683;SDS011;3884;48.616;12.872;2023-11-22T07:59:49;4.37;;;3.40;;
7683;SDS011;3884;48.616;12.872;2023-11-22T08:02:19;4.43;;;3.57;;
7683;SDS011;3884;48.616;12.872;2023-11-22T08:04:46;3.73;;;3.43;;
7683;SDS011;3884;48.616;12.872;2023-11-22T08:07:17;4.80;;;3.70;;
7683;SDS011;3884;48.616;12.872;2023-11-22T08:09:44;4.27;;;3.87;;
7683;SDS011;3884;48.616;12.872;2023-11-22T08:12:11;7.03;;;5.60;;
7683;SDS011;3884;48.616;12.872;2023-11-22T08:14:38;7.70;;;5.13;;
7683;SDS011;3884;48.616;12.872;2023-11-22T08:17:05;5.67;;;4.63;;
7683;SDS011;3884;48.616;12.872;2023-11-22T08:19:32;5.27;;;4.50;;
7683;SDS011;3884;48.616;12.872;2023-11-22T08:21:59;4.27;;;3.87;;
7683;SDS011;3884;48.616;12.872;2023-11-22T08:24:27;4.50;;;3.70;;
7683;SDS011;3884;48.616;12.872;2023-11-22T08:26:54;4.37;;;3.70;;
7683;SDS011;3884;48.616;12.872;2023-11-22T08:29:21;4.17;;;3.80;;
7683;SDS011;3884;48.616;12.872;2023-11-22T08:31:48;4.50;;;3.63;;
7683;SDS011;3884;48.616;12.872;2023-11-22T08:34:15;3.70;;;3.40;;
7683;SDS011;3884;48.616;12.872;2023-11-22T08:36:42;4.57;;;4.17;;
7683;SDS011;3884;48.616;12.872;2023-11-22T08:39:09;3.80;;;3.50;;
7683;SDS011;3884;48.616;12.872;2023-11-22T08:41:38;4.73;;;4.27;;
7683;SDS011;3884;48.616;12.872;2023-11-22T08:44:05;4.73;;;4.23;;
7683;SDS011;3884;48.616;12.872;2023-11-22T08:46:32;4.50;;;4.10;;
7683;SDS011;3884;48.616;12.872;2023-11-22T08:48:59;5.13;;;4.17;;
7683;SDS011;3884;48.616;12.872;2023-11-22T08:51:27;5.30;;;4.40;;
7683;SDS011;3884;48.616;12.872;2023-11-22T08:53:54;4.40;;;4.00;;
7683;SDS011;3884;48.616;12.872;2023-11-22T08:56:21;4.63;;;4.23;;
7683;SDS011;3884;48.616;12.872;2023-11-22T08:58:49;4.50;;;4.10;;
7683;SDS011;3884;48.616;12.872;2023-11-22T09:01:16;5.40;;;4.90;;
7683;SDS011;3884;48.616;12.872;2023-11-22T09:03:43;5.17;;;4.77;;
7683;SDS011;3884;48.616;12.872;2023-11-22T09:06:10;5.10;;;4.60;;
7683;SDS011;3884;48.616;12.872;2023-11-22T09:08:38;4.93;;;4.43;;
7683;SDS011;3884;48.616;12.872;2023-11-22T09:11:05;5.50;;;5.00;;
7683;SDS011;3884;48.616;12.872;2023-11-22T09:13:32;5.50;;;5.00;;
7683;SDS011;3884;48.616;12.872;2023-11-22T09:16:01;4.70;;;4.30;;
7683;SDS011;3884;48.616;12.872;2023-11-22T09:18:30;5.13;;;4.60;;
7683;SDS011;3884;48.616;12.872;2023-11-22T09:20:58;4.23;;;3.90;;
7683;SDS011;3884;48.616;12.872;2023-11-22T09:23:24;4.57;;;4.17;;
7683;SDS011;3884;48.616;12.872;2023-11-22T09:25:52;4.60;;;4.20;;
7683;SDS011;3884;48.616;12.872;2023-11-22T09:28:19;5.33;;;4.80;;
7683;SDS011;3884;48.616;12.872;2023-11-22T09:30:47;5.13;;;4.73;;
7683;SDS011;3884;48.616;12.872;2023-11-22T09:33:16;6.07;;;4.97;;
7683;SDS011;3884;48.616;12.872;2023-11-22T09:35:44;5.80;;;5.10;;
7683;SDS011;3884;48.616;12.872;2023-11-22T09:38:12;6.20;;;5.43;;
7683;SDS011;3884;48.616;12.872;2023-11-22T09:40:41;5.93;;;5.33;;
7683;SDS011;3884;48.616;12.872;2023-11-22T09:43:10;6.30;;;5.70;;
7683;SDS011;3884;48.616;12.872;2023-11-22T09:45:40;5.60;;;5.10;;
7683;SDS011;3884;48.616;12.872;2023-11-22T09:48:07;6.00;;;5.50;;
7683;SDS011;3884;48.616;12.872;2023-11-22T09:50:54;7.53;;;6.83;;
7683;SDS011;3884;48.616;12.872;2023-11-22T09:53:30;6.73;;;6.13;;
7683;SDS011;3884;48.616;12.872;2023-11-22T09:56:01;7.60;;;7.00;;
7683;SDS011;3884;48.616;12.872;2023-11-22T09:58:30;8.93;;;6.47;;
7683;SDS011;3884;48.616;12.872;2023-11-22T10:00:59;7.37;;;6.70;;
7683;SDS011;3884;48.616;12.872;2023-11-22T10:03:27;11.63;;;10.17;;
7683;SDS011;3884;48.616;12.872;2023-11-22T10:05:57;9.60;;;8.60;;
7683;SDS011;3884;48.616;12.872;2023-11-22T10:08:25;9.13;;;8.30;;
7683;SDS011;3884;48.616;12.872;2023-11-22T10:10:52;9.67;;;8.77;;
7683;SDS011;3884;48.616;12.872;2023-11-22T10:13:20;9.23;;;8.27;;
7683;SDS011;3884;48.616;12.872;2023-11-22T10:15:48;9.03;;;8.13;;
7683;SDS011;3884;48.616;12.872;2023-11-22T10:18:15;8.47;;;7.77;;
7683;SDS011;3884;48.616;12.872;2023-11-22T10:20:43;8.67;;;7.80;;
7683;SDS011;3884;48.616;12.872;2023-11-22T10:23:13;24.63;;;18.60;;
7683;SDS011;3884;48.616;12.872;2023-11-22T10:25:43;14.27;;;11.20;;
7683;SDS011;3884;48.616;12.872;2023-11-22T10:28:12;9.87;;;8.83;;
7683;SDS011;3884;48.616;12.872;2023-11-22T10:30:39;70.23;;;40.87;;
7683;SDS011;3884;48.616;12.872;2023-11-22T10:33:08;30.67;;;19.70;;
7683;SDS011;3884;48.616;12.872;2023-11-22T10:35:38;8.80;;;7.90;;
7683;SDS011;3884;48.616;12.872;2023-11-22T10:38:08;9.70;;;8.80;;
7683;SDS011;3884;48.616;12.872;2023-11-22T10:40:37;9.90;;;9.00;;
7683;SDS011;3884;48.616;12.872;2023-11-22T10:43:04;13.93;;;12.73;;
7683;SDS011;3884;48.616;12.872;2023-11-22T10:45:33;10.10;;;9.10;;
7683;SDS011;3884;48.616;12.872;2023-11-22T10:48:02;22.73;;;20.63;;
7683;SDS011;3884;48.616;12.872;2023-11-22T10:50:30;8.60;;;7.63;;
7683;SDS011;3884;48.616;12.872;2023-11-22T10:52:58;7.87;;;7.10;;
7683;SDS011;3884;48.616;12.872;2023-11-22T10:55:26;8.10;;;7.30;;
7683;SDS011;3884;48.616;12.872;2023-11-22T10:57:56;8.20;;;7.47;;
7683;SDS011;3884;48.616;12.872;2023-11-22T11:00:29;8.33;;;7.50;;
7683;SDS011;3884;48.616;12.872;2023-11-22T11:02:59;7.30;;;6.60;;
7683;SDS011;3884;48.616;12.872;2023-11-22T11:05:30;8.43;;;7.63;;
7683;SDS011;3884;48.616;12.872;2023-11-22T11:08:00;7.63;;;6.93;;
7683;SDS011;3884;48.616;12.872;2023-11-22T11:10:37;8.20;;;7.40;;
7683;SDS011;3884;48.616;12.872;2023-11-22T11:13:07;8.47;;;7.50;;
7683;SDS011;3884;48.616;12.872;2023-11-22T11:15:36;9.57;;;7.30;;
7683;SDS011;3884;48.616;12.872;2023-11-22T11:18:04;8.40;;;7.60;;
7683;SDS011;3884;48.616;12.872;2023-11-22T11:20:32;8.23;;;7.00;;
7683;SDS011;3884;48.616;12.872;2023-11-22T11:23:13;8.50;;;7.70;;
7683;SDS011;3884;48.616;12.872;2023-11-22T11:25:41;11.33;;;8.03;;
7683;SDS011;3884;48.616;12.872;2023-11-22T11:28:12;8.67;;;7.77;;
7683;SDS011;3884;48.616;12.872;2023-11-22T11:30:42;7.37;;;6.67;;
7683;SDS011;3884;48.616;12.872;2023-11-22T11:33:11;8.60;;;7.70;;
7683;SDS011;3884;48.616;12.872;2023-11-22T11:35:42;8.30;;;7.50;;
7683;SDS011;3884;48.616;12.872;2023-11-22T11:38:12;8.63;;;7.73;;
7683;SDS011;3884;48.616;12.872;2023-11-22T11:40:41;8.80;;;7.13;;
7683;SDS011;3884;48.616;12.872;2023-11-22T11:43:10;8.30;;;7.43;;
7683;SDS011;3884;48.616;12.872;2023-11-22T11:45:38;9.03;;;8.23;;
7683;SDS011;3884;48.616;12.872;2023-11-22T11:48:10;7.83;;;7.13;;
7683;SDS011;3884;48.616;12.872;2023-11-22T11:50:39;7.90;;;7.10;;
7683;SDS011;3884;48.616;12.872;2023-11-22T11:53:06;7.27;;;6.57;;
7683;SDS011;3884;48.616;12.872;2023-11-22T11:55:33;6.97;;;6.37;;
7683;SDS011;3884;48.616;12.872;2023-11-22T11:58:04;7.73;;;7.03;;
7683;SDS011;3884;48.616;12.872;2023-11-22T12:00:35;7.47;;;6.80;;
7683;SDS011;3884;48.616;12.872;2023-11-22T12:03:05;7.90;;;7.10;;
7683;SDS011;3884;48.616;12.872;2023-11-22T12:05:35;7.73;;;7.00;;
7683;SDS011;3884;48.616;12.872;2023-11-22T12:08:02;7.70;;;7.00;;
7683;SDS011;3884;48.616;12.872;2023-11-22T12:10:29;7.53;;;6.73;;
7683;SDS011;3884;48.616;12.872;2023-11-22T12:12:56;7.77;;;6.97;;
7683;SDS011;3884;48.616;12.872;2023-11-22T12:15:24;7.23;;;6.53;;
7683;SDS011;3884;48.616;12.872;2023-11-22T12:17:52;7.73;;;6.63;;
7683;SDS011;3884;48.616;12.872;2023-11-22T12:20:22;7.30;;;6.63;;
7683;SDS011;3884;48.616;12.872;2023-11-22T12:22:51;8.40;;;7.60;;
7683;SDS011;3884;48.616;12.872;2023-11-22T12:25:18;8.93;;;7.77;;
7683;SDS011;3884;48.616;12.872;2023-11-22T12:27:46;8.77;;;7.70;;
7683;SDS011;3884;48.616;12.872;2023-11-22T12:30:30;7.63;;;6.93;;
7683;SDS011;3884;48.616;12.872;2023-11-22T12:33:01;7.70;;;6.83;;
7683;SDS011;3884;48.616;12.872;2023-11-22T12:35:29;7.80;;;7.00;;
7683;SDS011;3884;48.616;12.872;2023-11-22T12:37:58;7.93;;;7.13;;
7683;SDS011;3884;48.616;12.872;2023-11-22T12:40:27;8.23;;;7.43;;
7683;SDS011;3884;48.616;12.872;2023-11-22T12:42:56;9.00;;;7.87;;
7683;SDS011;3884;48.616;12.872;2023-11-22T12:45:24;8.60;;;7.70;;
7683;SDS011;3884;48.616;12.872;2023-11-22T12:47:54;8.50;;;7.70;;
7683;SDS011;3884;48.616;12.872;2023-11-22T12:50:32;8.13;;;7.33;;
7683;SDS011;3884;48.616;12.872;2023-11-22T12:53:07;11.60;;;10.40;;
7683;SDS011;3884;48.616;12.872;2023-11-22T12:55:36;8.47;;;7.67;;
7683;SDS011;3884;48.616;12.872;2023-11-22T12:58:04;8.10;;;7.30;;
7683;SDS011;3884;48.616;12.872;2023-11-22T13:00:32;9.67;;;8.67;;
7683;SDS011;3884;48.616;12.872;2023-11-22T13:02:59;8.47;;;7.67;;
7683;SDS011;3884;48.616;12.872;2023-11-22T13:05:28;8.00;;;7.20;;
7683;SDS011;3884;48.616;12.872;2023-11-22T13:07:56;8.40;;;7.53;;
7683;SDS011;3884;48.616;12.872;2023-11-22T13:10:23;7.97;;;7.17;;
7683;SDS011;3884;48.616;12.872;2023-11-22T13:12:51;8.23;;;7.43;;
7683;SDS011;3884;48.616;12.872;2023-11-22T13:15:19;8.83;;;7.57;;
7683;SDS011;3884;48.616;12.872;2023-11-22T13:17:49;9.70;;;7.83;;
7683;SDS011;3884;48.616;12.872;2023-11-22T13:20:20;9.03;;;8.13;;
7683;SDS011;3884;48.616;12.872;2023-11-22T13:22:48;12.30;;;9.97;;
7683;SDS011;3884;48.616;12.872;2023-11-22T13:25:17;12.07;;;8.67;;
7683;SDS011;3884;48.616;12.872;2023-11-22T13:27:44;10.47;;;9.30;;
7683;SDS011;3884;48.616;12.872;2023-11-22T13:30:13;10.00;;;8.57;;
7683;SDS011;3884;48.616;12.872;2023-11-22T13:32:40;11.60;;;9.57;;
7683;SDS011;3884;48.616;12.872;2023-11-22T13:35:08;9.43;;;8.23;;
7683;SDS011;3884;48.616;12.872;2023-11-22T13:37:40;9.40;;;8.10;;
7683;SDS011;3884;48.616;12.872;2023-11-22T13:40:09;10.53;;;9.13;;
7683;SDS011;3884;48.616;12.872;2023-11-22T13:42:43;10.63;;;9.40;;
7683;SDS011;3884;48.616;12.872;2023-11-22T13:45:11;9.63;;;8.63;;
7683;SDS011;3884;48.616;12.872;2023-11-22T13:47:42;10.00;;;8.47;;
7683;SDS011;3884;48.616;12.872;2023-11-22T13:50:11;12.43;;;9.83;;
7683;SDS011;3884;48.616;12.872;2023-11-22T13:52:40;12.80;;;9.37;;
7683;SDS011;3884;48.616;12.872;2023-11-22T13:55:07;9.83;;;8.83;;
7683;SDS011;3884;48.616;12.872;2023-11-22T13:57:37;10.50;;;9.00;;
7683;SDS011;3884;48.616;12.872;2023-11-22T14:00:06;12.00;;;10.57;;
7683;SDS011;3884;48.616;12.872;2023-11-22T14:02:43;12.07;;;10.60;;
7683;SDS011;3884;48.616;12.872;2023-11-22T14:05:10;14.03;;;11.33;;
7683;SDS011;3884;48.616;12.872;2023-11-22T14:07:37;15.03;;;11.33;;
7683;SDS011;3884;48.616;12.872;2023-11-22T14:10:05;12.53;;;10.83;;
7683;SDS011;3884;48.616;12.872;2023-11-22T14:12:34;13.17;;;11.30;;
7683;SDS011;3884;48.616;12.872;2023-11-22T14:15:01;13.00;;;11.10;;
7683;SDS011;3884;48.616;12.872;2023-11-22T14:17:32;11.83;;;10.40;;
7683;SDS011;3884;48.616;12.872;2023-11-22T14:20:00;16.70;;;12.33;;
7683;SDS011;3884;48.616;12.872;2023-11-22T14:22:27;12.87;;;10.97;;
7683;SDS011;3884;48.616;12.872;2023-11-22T14:24:54;13.03;;;10.97;;
7683;SDS011;3884;48.616;12.872;2023-11-22T14:27:22;13.07;;;11.07;;
7683;SDS011;3884;48.616;12.872;2023-11-22T14:29:49;11.70;;;10.03;;
7683;SDS011;3884;48.616;12.872;2023-11-22T14:32:16;12.50;;;11.03;;
7683;SDS011;3884;48.616;12.872;2023-11-22T14:34:47;12.97;;;11.60;;
7683;SDS011;3884;48.616;12.872;2023-11-22T14:37:14;13.93;;;12.00;;
7683;SDS011;3884;48.616;12.872;2023-11-22T14:39:42;15.13;;;12.43;;
7683;SDS011;3884;48.616;12.872;2023-11-22T14:42:09;13.77;;;11.40;;
7683;SDS011;3884;48.616;12.872;2023-11-22T14:44:36;15.07;;;11.30;;
7683;SDS011;3884;48.616;12.872;2023-11-22T14:47:03;14.90;;;11.87;;
7683;SDS011;3884;48.616;12.872;2023-11-22T14:49:32;13.13;;;11.50;;
7683;SDS011;3884;48.616;12.872;2023-11-22T14:52:00;14.57;;;12.40;;
7683;SDS011;3884;48.616;12.872;2023-11-22T14:54:29;16.27;;;12.57;;
7683;SDS011;3884;48.616;12.872;2023-11-22T14:56:56;16.40;;;12.97;;
7683;SDS011;3884;48.616;12.872;2023-11-22T14:59:27;16.90;;;13.93;;
7683;SDS011;3884;48.616;12.872;2023-11-22T15:01:54;16.73;;;13.67;;
7683;SDS011;3884;48.616;12.872;2023-11-22T15:04:22;16.33;;;13.57;;
7683;SDS011;3884;48.616;12.872;2023-11-22T15:06:48;18.10;;;13.73;;
7683;SDS011;3884;48.616;12.872;2023-11-22T15:09:17;17.90;;;14.20;;
7683;SDS011;3884;48.616;12.872;2023-11-22T15:11:44;16.63;;;14.10;;
7683;SDS011;3884;48.616;12.872;2023-11-22T15:14:12;28.97;;;17.17;;
7683;SDS011;3884;48.616;12.872;2023-11-22T15:16:39;18.83;;;14.93;;
7683;SDS011;3884;48.616;12.872;2023-11-22T15:19:06;17.33;;;14.33;;
7683;SDS011;3884;48.616;12.872;2023-11-22T15:21:35;16.80;;;13.93;;
7683;SDS011;3884;48.616;12.872;2023-11-22T15:24:02;16.73;;;13.80;;
7683;SDS011;3884;48.616;12.872;2023-11-22T15:26:31;16.20;;;13.73;;